sensor_id;sensor_type;location;lat;lon;timestamp;P1;durP1;ratioP1;P2;durP2;ratioP2
23474;SDS011;11910;52.086;21.066;2023-02-22T00:01:08;19.20;;;6.03;;
23474;SDS011;11910;52.086;21.066;2023-02-22T00:03:49;20.45;;;5.43;;
23474;SDS011;11910;52.086;21.066;2023-02-22T00:06:17;18.33;;;5.03;;
23474;SDS011;11910;52.086;21.066;2023-02-22T00:08:46;14.93;;;4.47;;
23474;SDS011;11910;52.086;21.066;2023-02-22T00:11:13;13.93;;;4.10;;
23474;SDS011;11910;52.086;21.066;2023-02-22T00:13:39;15.82;;;4.97;;
23474;SDS011;11910;52.086;21.066;2023-02-22T00:16:09;12.40;;;4.25;;
23474;SDS011;11910;52.086;21.066;2023-02-22T00:18:38;14.45;;;4.55;;
23474;SDS011;11910;52.086;21.066;2023-02-22T00:21:04;15.80;;;4.35;;
23474;SDS011;11910;52.086;21.066;2023-02-22T00:23:34;21.02;;;4.90;;
23474;SDS011;11910;52.086;21.066;2023-02-22T00:26:03;11.02;;;4.30;;
23474;SDS011;11910;52.086;21.066;2023-02-22T00:28:33;17.30;;;5.00;;
23474;SDS011;11910;52.086;21.066;2023-02-22T00:31:00;16.52;;;4.38;;
23474;SDS011;11910;52.086;21.066;2023-02-22T00:33:29;12.30;;;4.70;;
23474;SDS011;11910;52.086;21.066;2023-02-22T00:35:55;16.90;;;4.88;;
23474;SDS011;11910;52.086;21.066;2023-02-22T00:38:21;12.95;;;4.45;;
23474;SDS011;11910;52.086;21.066;2023-02-22T00:40:46;16.05;;;4.68;;
23474;SDS011;11910;52.086;21.066;2023-02-22T00:43:12;12.25;;;4.20;;
23474;SDS011;11910;52.086;21.066;2023-02-22T00:45:38;15.70;;;4.68;;
23474;SDS011;11910;52.086;21.066;2023-02-22T00:48:04;14.48;;;4.40;;
23474;SDS011;11910;52.086;21.066;2023-02-22T00:50:31;13.32;;;4.28;;
23474;SDS011;11910;52.086;21.066;2023-02-22T00:52:58;15.98;;;4.35;;
23474;SDS011;11910;52.086;21.066;2023-02-22T00:55:26;12.55;;;4.15;;
23474;SDS011;11910;52.086;21.066;2023-02-22T00:57:54;12.52;;;4.30;;
23474;SDS011;11910;52.086;21.066;2023-02-22T01:00:21;15.27;;;4.38;;
23474;SDS011;11910;52.086;21.066;2023-02-22T01:02:49;14.43;;;4.30;;
23474;SDS011;11910;52.086;21.066;2023-02-22T01:05:16;14.60;;;4.43;;
23474;SDS011;11910;52.086;21.066;2023-02-22T01:07:43;14.10;;;4.32;;
23474;SDS011;11910;52.086;21.066;2023-02-22T01:10:10;14.15;;;4.55;;
23474;SDS011;11910;52.086;21.066;2023-02-22T01:12:36;16.27;;;4.60;;
23474;SDS011;11910;52.086;21.066;2023-02-22T01:15:02;15.98;;;4.82;;
23474;SDS011;11910;52.086;21.066;2023-02-22T01:17:29;15.35;;;4.75;;
23474;SDS011;11910;52.086;21.066;2023-02-22T01:19:55;15.95;;;5.30;;
23474;SDS011;11910;52.086;21.066;2023-02-22T01:22:21;16.08;;;5.25;;
23474;SDS011;11910;52.086;21.066;2023-02-22T01:24:47;18.95;;;6.10;;
23474;SDS011;11910;52.086;21.066;2023-02-22T01:27:14;15.95;;;6.22;;
23474;SDS011;11910;52.086;21.066;2023-02-22T01:29:39;21.92;;;6.75;;
23474;SDS011;11910;52.086;21.066;2023-02-22T01:32:05;18.95;;;6.45;;
23474;SDS011;11910;52.086;21.066;2023-02-22T01:34:31;20.50;;;6.88;;
23474;SDS011;11910;52.086;21.066;2023-02-22T01:36:58;21.27;;;6.65;;
23474;SDS011;11910;52.086;21.066;2023-02-22T01:39:25;17.67;;;5.88;;
23474;SDS011;11910;52.086;21.066;2023-02-22T01:41:51;20.67;;;6.75;;
23474;SDS011;11910;52.086;21.066;2023-02-22T01:44:30;18.63;;;6.85;;
23474;SDS011;11910;52.086;21.066;2023-02-22T01:46:59;19.35;;;6.93;;
23474;SDS011;11910;52.086;21.066;2023-02-22T01:49:28;23.08;;;7.18;;
23474;SDS011;11910;52.086;21.066;2023-02-22T01:52:02;22.98;;;7.32;;
23474;SDS011;11910;52.086;21.066;2023-02-22T01:54:34;27.15;;;8.07;;
23474;SDS011;11910;52.086;21.066;2023-02-22T01:57:25;23.52;;;7.88;;
23474;SDS011;11910;52.086;21.066;2023-02-22T01:59:59;22.67;;;7.15;;
23474;SDS011;11910;52.086;21.066;2023-02-22T02:02:34;23.20;;;7.85;;
23474;SDS011;11910;52.086;21.066;2023-02-22T02:05:05;25.02;;;7.53;;
23474;SDS011;11910;52.086;21.066;2023-02-22T02:07:32;26.42;;;8.70;;
23474;SDS011;11910;52.086;21.066;2023-02-22T02:10:01;27.80;;;8.55;;
23474;SDS011;11910;52.086;21.066;2023-02-22T02:12:31;27.98;;;8.80;;
23474;SDS011;11910;52.086;21.066;2023-02-22T02:17:46;27.92;;;8.43;;
23474;SDS011;11910;52.086;21.066;2023-02-22T02:37:46;21.73;;;6.80;;
23474;SDS011;11910;52.086;21.066;2023-02-22T02:43:00;18.65;;;6.40;;
23474;SDS011;11910;52.086;21.066;2023-02-22T02:45:40;19.13;;;6.55;;
23474;SDS011;11910;52.086;21.066;2023-02-22T02:48:12;19.90;;;6.15;;
23474;SDS011;11910;52.086;21.066;2023-02-22T02:50:41;18.42;;;5.80;;
23474;SDS011;11910;52.086;21.066;2023-02-22T02:53:10;18.27;;;6.20;;
23474;SDS011;11910;52.086;21.066;2023-02-22T02:55:37;18.42;;;5.97;;
23474;SDS011;11910;52.086;21.066;2023-02-22T02:58:04;14.95;;;5.30;;
23474;SDS011;11910;52.086;21.066;2023-02-22T03:00:32;17.85;;;5.57;;
23474;SDS011;11910;52.086;21.066;2023-02-22T03:04:04;19.85;;;5.53;;
23474;SDS011;11910;52.086;21.066;2023-02-22T03:09:36;16.17;;;5.68;;
23474;SDS011;11910;52.086;21.066;2023-02-22T03:17:20;14.18;;;5.03;;
23474;SDS011;11910;52.086;21.066;2023-02-22T03:19:50;14.95;;;5.25;;
23474;SDS011;11910;52.086;21.066;2023-02-22T03:22:26;17.58;;;5.55;;
23474;SDS011;11910;52.086;21.066;2023-02-22T03:27:32;17.27;;;5.60;;
23474;SDS011;11910;52.086;21.066;2023-02-22T03:30:09;18.17;;;5.60;;
23474;SDS011;11910;52.086;21.066;2023-02-22T03:32:51;22.65;;;5.80;;
23474;SDS011;11910;52.086;21.066;2023-02-22T03:35:23;14.35;;;5.30;;
23474;SDS011;11910;52.086;21.066;2023-02-22T03:37:56;18.23;;;5.45;;
23474;SDS011;11910;52.086;21.066;2023-02-22T03:40:33;19.05;;;5.50;;
23474;SDS011;11910;52.086;21.066;2023-02-22T03:43:05;13.98;;;5.10;;
23474;SDS011;11910;52.086;21.066;2023-02-22T03:45:33;15.23;;;5.90;;
23474;SDS011;11910;52.086;21.066;2023-02-22T03:48:13;16.00;;;5.57;;
23474;SDS011;11910;52.086;21.066;2023-02-22T03:50:44;18.25;;;5.90;;
23474;SDS011;11910;52.086;21.066;2023-02-22T03:53:10;15.18;;;5.45;;
23474;SDS011;11910;52.086;21.066;2023-02-22T03:55:36;16.52;;;5.70;;
23474;SDS011;11910;52.086;21.066;2023-02-22T03:58:04;14.93;;;6.10;;
23474;SDS011;11910;52.086;21.066;2023-02-22T04:00:33;13.52;;;5.75;;
23474;SDS011;11910;52.086;21.066;2023-02-22T04:02:59;15.27;;;6.10;;
23474;SDS011;11910;52.086;21.066;2023-02-22T04:08:48;15.82;;;7.03;;
23474;SDS011;11910;52.086;21.066;2023-02-22T04:11:14;17.33;;;6.13;;
23474;SDS011;11910;52.086;21.066;2023-02-22T04:13:39;14.15;;;5.60;;
23474;SDS011;11910;52.086;21.066;2023-02-22T04:16:05;18.00;;;6.15;;
23474;SDS011;11910;52.086;21.066;2023-02-22T04:18:31;15.90;;;5.80;;
23474;SDS011;11910;52.086;21.066;2023-02-22T04:20:57;15.38;;;6.15;;
23474;SDS011;11910;52.086;21.066;2023-02-22T04:23:22;15.18;;;6.28;;
23474;SDS011;11910;52.086;21.066;2023-02-22T04:25:48;14.18;;;5.78;;
23474;SDS011;11910;52.086;21.066;2023-02-22T04:28:13;11.15;;;4.70;;
23474;SDS011;11910;52.086;21.066;2023-02-22T04:30:39;11.45;;;5.15;;
23474;SDS011;11910;52.086;21.066;2023-02-22T04:33:05;11.63;;;4.90;;
23474;SDS011;11910;52.086;21.066;2023-02-22T04:35:30;12.75;;;5.13;;
23474;SDS011;11910;52.086;21.066;2023-02-22T04:37:56;16.27;;;6.30;;
23474;SDS011;11910;52.086;21.066;2023-02-22T04:40:22;13.60;;;5.28;;
23474;SDS011;11910;52.086;21.066;2023-02-22T04:42:47;13.35;;;5.05;;
23474;SDS011;11910;52.086;21.066;2023-02-22T04:45:13;14.18;;;5.63;;
23474;SDS011;11910;52.086;21.066;2023-02-22T04:47:39;12.27;;;5.10;;
23474;SDS011;11910;52.086;21.066;2023-02-22T04:50:05;14.45;;;6.10;;
23474;SDS011;11910;52.086;21.066;2023-02-22T04:52:31;13.43;;;5.80;;
23474;SDS011;11910;52.086;21.066;2023-02-22T04:54:57;8.45;;;3.88;;
23474;SDS011;11910;52.086;21.066;2023-02-22T04:57:22;9.93;;;4.45;;
23474;SDS011;11910;52.086;21.066;2023-02-22T04:59:48;8.73;;;4.13;;
23474;SDS011;11910;52.086;21.066;2023-02-22T05:02:15;6.60;;;3.63;;
23474;SDS011;11910;52.086;21.066;2023-02-22T05:04:41;6.97;;;3.25;;
23474;SDS011;11910;52.086;21.066;2023-02-22T05:07:06;5.90;;;3.28;;
23474;SDS011;11910;52.086;21.066;2023-02-22T05:09:32;6.63;;;3.50;;
23474;SDS011;11910;52.086;21.066;2023-02-22T05:11:57;5.15;;;3.20;;
23474;SDS011;11910;52.086;21.066;2023-02-22T05:14:23;5.93;;;3.80;;
23474;SDS011;11910;52.086;21.066;2023-02-22T05:16:51;5.18;;;3.00;;
23474;SDS011;11910;52.086;21.066;2023-02-22T05:19:18;6.15;;;3.58;;
23474;SDS011;11910;52.086;21.066;2023-02-22T05:21:43;4.57;;;2.97;;
23474;SDS011;11910;52.086;21.066;2023-02-22T05:24:09;2.53;;;2.17;;
23474;SDS011;11910;52.086;21.066;2023-02-22T05:26:35;5.43;;;3.05;;
23474;SDS011;11910;52.086;21.066;2023-02-22T05:29:00;3.63;;;2.47;;
23474;SDS011;11910;52.086;21.066;2023-02-22T05:31:26;3.47;;;2.40;;
23474;SDS011;11910;52.086;21.066;2023-02-22T05:33:51;3.53;;;2.60;;
23474;SDS011;11910;52.086;21.066;2023-02-22T05:36:17;4.15;;;2.75;;
23474;SDS011;11910;52.086;21.066;2023-02-22T05:38:42;5.50;;;3.50;;
23474;SDS011;11910;52.086;21.066;2023-02-22T05:41:09;5.57;;;3.22;;
23474;SDS011;11910;52.086;21.066;2023-02-22T05:43:36;5.93;;;3.72;;
23474;SDS011;11910;52.086;21.066;2023-02-22T05:46:02;7.07;;;3.80;;
23474;SDS011;11910;52.086;21.066;2023-02-22T05:48:28;5.75;;;3.10;;
23474;SDS011;11910;52.086;21.066;2023-02-22T05:50:55;4.63;;;2.70;;
23474;SDS011;11910;52.086;21.066;2023-02-22T05:53:20;5.80;;;2.92;;
23474;SDS011;11910;52.086;21.066;2023-02-22T05:55:47;11.93;;;7.03;;
23474;SDS011;11910;52.086;21.066;2023-02-22T05:58:13;18.27;;;11.15;;
23474;SDS011;11910;52.086;21.066;2023-02-22T06:00:39;28.02;;;18.63;;
23474;SDS011;11910;52.086;21.066;2023-02-22T06:03:05;17.33;;;10.73;;
23474;SDS011;11910;52.086;21.066;2023-02-22T06:05:32;11.00;;;6.75;;
23474;SDS011;11910;52.086;21.066;2023-02-22T06:07:58;8.55;;;5.55;;
23474;SDS011;11910;52.086;21.066;2023-02-22T06:10:24;8.68;;;5.10;;
23474;SDS011;11910;52.086;21.066;2023-02-22T06:12:50;21.85;;;13.52;;
23474;SDS011;11910;52.086;21.066;2023-02-22T06:15:17;12.60;;;8.70;;
23474;SDS011;11910;52.086;21.066;2023-02-22T06:17:44;13.93;;;10.07;;
23474;SDS011;11910;52.086;21.066;2023-02-22T06:20:10;11.60;;;7.82;;
23474;SDS011;11910;52.086;21.066;2023-02-22T06:22:38;9.15;;;6.18;;
23474;SDS011;11910;52.086;21.066;2023-02-22T06:25:07;6.07;;;4.00;;
23474;SDS011;11910;52.086;21.066;2023-02-22T06:27:33;4.18;;;3.03;;
23474;SDS011;11910;52.086;21.066;2023-02-22T06:29:59;3.50;;;2.83;;
23474;SDS011;11910;52.086;21.066;2023-02-22T06:32:26;4.60;;;2.95;;
23474;SDS011;11910;52.086;21.066;2023-02-22T06:34:52;5.63;;;2.90;;
23474;SDS011;11910;52.086;21.066;2023-02-22T06:37:17;3.92;;;2.50;;
23474;SDS011;11910;52.086;21.066;2023-02-22T06:39:43;5.50;;;2.72;;
23474;SDS011;11910;52.086;21.066;2023-02-22T06:42:08;5.30;;;2.60;;
23474;SDS011;11910;52.086;21.066;2023-02-22T06:44:34;5.47;;;3.22;;
23474;SDS011;11910;52.086;21.066;2023-02-22T06:46:59;3.60;;;2.90;;
23474;SDS011;11910;52.086;21.066;2023-02-22T06:49:25;7.43;;;2.92;;
23474;SDS011;11910;52.086;21.066;2023-02-22T06:51:52;4.47;;;2.95;;
23474;SDS011;11910;52.086;21.066;2023-02-22T06:54:18;3.28;;;2.60;;
23474;SDS011;11910;52.086;21.066;2023-02-22T06:56:45;5.45;;;3.80;;
23474;SDS011;11910;52.086;21.066;2023-02-22T06:59:11;5.60;;;3.65;;
23474;SDS011;11910;52.086;21.066;2023-02-22T07:01:39;6.63;;;3.88;;
23474;SDS011;11910;52.086;21.066;2023-02-22T07:04:05;5.97;;;4.07;;
23474;SDS011;11910;52.086;21.066;2023-02-22T07:06:30;6.57;;;3.50;;
23474;SDS011;11910;52.086;21.066;2023-02-22T07:08:56;5.75;;;3.80;;
23474;SDS011;11910;52.086;21.066;2023-02-22T07:11:22;4.82;;;3.33;;
23474;SDS011;11910;52.086;21.066;2023-02-22T07:13:50;6.53;;;3.92;;
23474;SDS011;11910;52.086;21.066;2023-02-22T07:16:16;4.38;;;3.25;;
23474;SDS011;11910;52.086;21.066;2023-02-22T07:18:42;4.68;;;3.47;;
23474;SDS011;11910;52.086;21.066;2023-02-22T07:21:08;7.78;;;3.20;;
23474;SDS011;11910;52.086;21.066;2023-02-22T07:23:33;5.35;;;3.90;;
23474;SDS011;11910;52.086;21.066;2023-02-22T07:26:00;6.50;;;3.70;;
23474;SDS011;11910;52.086;21.066;2023-02-22T07:28:26;4.72;;;3.35;;
23474;SDS011;11910;52.086;21.066;2023-02-22T07:30:52;5.15;;;3.58;;
23474;SDS011;11910;52.086;21.066;2023-02-22T07:33:18;5.43;;;3.67;;
23474;SDS011;11910;52.086;21.066;2023-02-22T07:35:45;4.47;;;3.17;;
23474;SDS011;11910;52.086;21.066;2023-02-22T07:38:13;5.28;;;3.50;;
23474;SDS011;11910;52.086;21.066;2023-02-22T07:40:41;5.30;;;3.58;;
23474;SDS011;11910;52.086;21.066;2023-02-22T07:43:14;4.53;;;3.15;;
23474;SDS011;11910;52.086;21.066;2023-02-22T07:45:45;4.85;;;3.20;;
23474;SDS011;11910;52.086;21.066;2023-02-22T07:48:12;4.43;;;2.95;;
23474;SDS011;11910;52.086;21.066;2023-02-22T07:50:39;4.10;;;3.03;;
23474;SDS011;11910;52.086;21.066;2023-02-22T07:53:09;3.72;;;2.78;;
23474;SDS011;11910;52.086;21.066;2023-02-22T07:55:37;4.10;;;2.85;;
23474;SDS011;11910;52.086;21.066;2023-02-22T07:58:04;5.80;;;2.90;;
23474;SDS011;11910;52.086;21.066;2023-02-22T08:00:33;4.07;;;2.65;;
23474;SDS011;11910;52.086;21.066;2023-02-22T08:03:04;5.72;;;2.90;;
23474;SDS011;11910;52.086;21.066;2023-02-22T08:05:33;4.55;;;2.80;;
23474;SDS011;11910;52.086;21.066;2023-02-22T08:08:02;4.80;;;3.28;;
23474;SDS011;11910;52.086;21.066;2023-02-22T08:10:30;6.28;;;3.65;;
23474;SDS011;11910;52.086;21.066;2023-02-22T08:12:55;5.35;;;3.58;;
23474;SDS011;11910;52.086;21.066;2023-02-22T08:15:26;4.85;;;3.17;;
23474;SDS011;11910;52.086;21.066;2023-02-22T08:20:20;5.40;;;3.70;;
23474;SDS011;11910;52.086;21.066;2023-02-22T08:22:46;4.30;;;3.00;;
23474;SDS011;11910;52.086;21.066;2023-02-22T08:25:19;4.40;;;3.05;;
23474;SDS011;11910;52.086;21.066;2023-02-22T08:27:45;6.78;;;3.72;;
23474;SDS011;11910;52.086;21.066;2023-02-22T08:30:16;5.38;;;3.15;;
23474;SDS011;11910;52.086;21.066;2023-02-22T08:35:10;3.80;;;2.47;;
23474;SDS011;11910;52.086;21.066;2023-02-22T08:37:40;3.50;;;2.47;;
23474;SDS011;11910;52.086;21.066;2023-02-22T08:40:08;3.53;;;2.42;;
23474;SDS011;11910;52.086;21.066;2023-02-22T08:42:34;4.18;;;2.45;;
23474;SDS011;11910;52.086;21.066;2023-02-22T08:44:59;2.85;;;2.03;;
23474;SDS011;11910;52.086;21.066;2023-02-22T08:47:25;3.38;;;2.17;;
23474;SDS011;11910;52.086;21.066;2023-02-22T08:49:50;4.03;;;2.63;;
23474;SDS011;11910;52.086;21.066;2023-02-22T08:52:16;3.42;;;2.17;;
23474;SDS011;11910;52.086;21.066;2023-02-22T08:54:43;3.83;;;2.70;;
23474;SDS011;11910;52.086;21.066;2023-02-22T08:57:09;4.18;;;2.90;;
23474;SDS011;11910;52.086;21.066;2023-02-22T08:59:35;4.30;;;2.40;;
23474;SDS011;11910;52.086;21.066;2023-02-22T09:02:01;2.65;;;2.03;;
23474;SDS011;11910;52.086;21.066;2023-02-22T09:04:27;4.72;;;2.72;;
23474;SDS011;11910;52.086;21.066;2023-02-22T09:06:52;3.83;;;2.70;;
23474;SDS011;11910;52.086;21.066;2023-02-22T09:09:18;4.70;;;2.60;;
23474;SDS011;11910;52.086;21.066;2023-02-22T09:11:46;3.60;;;2.45;;
23474;SDS011;11910;52.086;21.066;2023-02-22T09:14:12;4.20;;;2.20;;
23474;SDS011;11910;52.086;21.066;2023-02-22T09:16:39;4.13;;;2.60;;
23474;SDS011;11910;52.086;21.066;2023-02-22T09:19:05;4.35;;;2.92;;
23474;SDS011;11910;52.086;21.066;2023-02-22T09:21:30;3.80;;;2.78;;
23474;SDS011;11910;52.086;21.066;2023-02-22T09:23:56;4.03;;;2.60;;
23474;SDS011;11910;52.086;21.066;2023-02-22T09:26:22;3.85;;;2.80;;
23474;SDS011;11910;52.086;21.066;2023-02-22T09:28:48;4.20;;;2.95;;
23474;SDS011;11910;52.086;21.066;2023-02-22T09:31:14;3.63;;;2.55;;
23474;SDS011;11910;52.086;21.066;2023-02-22T09:33:40;4.25;;;2.80;;
23474;SDS011;11910;52.086;21.066;2023-02-22T09:36:06;7.20;;;2.95;;
23474;SDS011;11910;52.086;21.066;2023-02-22T09:38:32;3.75;;;2.75;;
23474;SDS011;11910;52.086;21.066;2023-02-22T09:41:12;5.55;;;3.00;;
23474;SDS011;11910;52.086;21.066;2023-02-22T09:46:31;4.05;;;2.90;;
23474;SDS011;11910;52.086;21.066;2023-02-22T09:51:44;4.75;;;3.38;;
23474;SDS011;11910;52.086;21.066;2023-02-22T09:54:30;5.32;;;2.60;;
23474;SDS011;11910;52.086;21.066;2023-02-22T09:57:25;4.88;;;3.05;;
23474;SDS011;11910;52.086;21.066;2023-02-22T09:59:58;6.20;;;3.15;;
23474;SDS011;11910;52.086;21.066;2023-02-22T10:02:39;4.85;;;3.20;;
23474;SDS011;11910;52.086;21.066;2023-02-22T10:07:52;4.65;;;3.08;;
23474;SDS011;11910;52.086;21.066;2023-02-22T10:10:23;4.25;;;2.80;;
23474;SDS011;11910;52.086;21.066;2023-02-22T10:18:42;5.85;;;3.17;;
23474;SDS011;11910;52.086;21.066;2023-02-22T10:26:47;6.50;;;3.10;;
23474;SDS011;11910;52.086;21.066;2023-02-22T10:31:49;4.53;;;3.20;;
23474;SDS011;11910;52.086;21.066;2023-02-22T10:34:21;4.90;;;3.20;;
23474;SDS011;11910;52.086;21.066;2023-02-22T10:36:56;5.00;;;3.20;;
23474;SDS011;11910;52.086;21.066;2023-02-22T10:39:38;4.38;;;3.35;;
23474;SDS011;11910;52.086;21.066;2023-02-22T10:42:05;4.82;;;3.50;;
23474;SDS011;11910;52.086;21.066;2023-02-22T10:44:36;6.13;;;3.15;;
23474;SDS011;11910;52.086;21.066;2023-02-22T10:47:10;4.32;;;3.30;;
23474;SDS011;11910;52.086;21.066;2023-02-22T10:49:40;4.53;;;3.17;;
23474;SDS011;11910;52.086;21.066;2023-02-22T10:52:12;4.35;;;3.30;;
23474;SDS011;11910;52.086;21.066;2023-02-22T10:54:44;5.18;;;3.60;;
23474;SDS011;11910;52.086;21.066;2023-02-22T10:57:13;5.85;;;3.67;;
23474;SDS011;11910;52.086;21.066;2023-02-22T10:59:44;10.32;;;3.70;;
23474;SDS011;11910;52.086;21.066;2023-02-22T11:02:31;6.18;;;4.10;;
23474;SDS011;11910;52.086;21.066;2023-02-22T11:04:59;7.35;;;4.78;;
23474;SDS011;11910;52.086;21.066;2023-02-22T11:09:56;7.30;;;5.13;;
23474;SDS011;11910;52.086;21.066;2023-02-22T11:12:30;7.32;;;5.30;;
23474;SDS011;11910;52.086;21.066;2023-02-22T11:17:41;7.38;;;5.13;;
23474;SDS011;11910;52.086;21.066;2023-02-22T11:20:18;7.30;;;5.22;;
23474;SDS011;11910;52.086;21.066;2023-02-22T11:22:49;6.78;;;5.10;;
23474;SDS011;11910;52.086;21.066;2023-02-22T11:25:31;7.03;;;4.85;;
23474;SDS011;11910;52.086;21.066;2023-02-22T11:28:09;7.53;;;5.50;;
23474;SDS011;11910;52.086;21.066;2023-02-22T11:30:39;9.73;;;5.68;;
23474;SDS011;11910;52.086;21.066;2023-02-22T11:33:18;8.98;;;5.97;;
23474;SDS011;11910;52.086;21.066;2023-02-22T11:35:54;9.63;;;5.72;;
23474;SDS011;11910;52.086;21.066;2023-02-22T11:43:43;10.98;;;6.00;;
23474;SDS011;11910;52.086;21.066;2023-02-22T11:57:52;9.13;;;5.97;;
23474;SDS011;11910;52.086;21.066;2023-02-22T12:11:13;6.68;;;4.60;;
23474;SDS011;11910;52.086;21.066;2023-02-22T12:14:03;8.88;;;5.30;;
23474;SDS011;11910;52.086;21.066;2023-02-22T12:16:41;8.43;;;5.30;;
23474;SDS011;11910;52.086;21.066;2023-02-22T12:19:26;7.32;;;5.00;;
23474;SDS011;11910;52.086;21.066;2023-02-22T12:22:18;7.85;;;5.28;;
23474;SDS011;11910;52.086;21.066;2023-02-22T12:27:25;7.03;;;5.20;;
23474;SDS011;11910;52.086;21.066;2023-02-22T12:32:41;8.25;;;5.88;;
23474;SDS011;11910;52.086;21.066;2023-02-22T12:35:22;9.43;;;5.90;;
23474;SDS011;11910;52.086;21.066;2023-02-22T12:43:44;7.60;;;5.30;;
23474;SDS011;11910;52.086;21.066;2023-02-22T12:51:42;11.57;;;5.88;;
23474;SDS011;11910;52.086;21.066;2023-02-22T13:00:23;9.52;;;5.38;;
23474;SDS011;11910;52.086;21.066;2023-02-22T13:09:11;8.77;;;5.57;;
23474;SDS011;11910;52.086;21.066;2023-02-22T13:20:23;8.63;;;5.15;;
23474;SDS011;11910;52.086;21.066;2023-02-22T13:23:07;7.68;;;5.10;;
23474;SDS011;11910;52.086;21.066;2023-02-22T13:26:03;8.75;;;5.50;;
23474;SDS011;11910;52.086;21.066;2023-02-22T13:28:47;9.50;;;5.75;;
23474;SDS011;11910;52.086;21.066;2023-02-22T13:31:35;9.70;;;5.70;;
23474;SDS011;11910;52.086;21.066;2023-02-22T13:34:11;9.23;;;4.90;;
23474;SDS011;11910;52.086;21.066;2023-02-22T13:43:14;8.10;;;5.20;;
23474;SDS011;11910;52.086;21.066;2023-02-22T13:51:32;8.20;;;4.93;;
23474;SDS011;11910;52.086;21.066;2023-02-22T13:54:26;9.05;;;5.25;;
23474;SDS011;11910;52.086;21.066;2023-02-22T13:57:02;8.52;;;5.03;;
23474;SDS011;11910;52.086;21.066;2023-02-22T13:59:43;6.70;;;4.53;;
23474;SDS011;11910;52.086;21.066;2023-02-22T14:02:30;8.55;;;4.90;;
23474;SDS011;11910;52.086;21.066;2023-02-22T14:10:47;7.53;;;5.13;;
23474;SDS011;11910;52.086;21.066;2023-02-22T14:13:18;6.38;;;4.47;;
23474;SDS011;11910;52.086;21.066;2023-02-22T14:16:14;7.40;;;4.78;;
23474;SDS011;11910;52.086;21.066;2023-02-22T14:18:43;9.40;;;4.72;;
23474;SDS011;11910;52.086;21.066;2023-02-22T14:23:51;7.00;;;4.80;;
23474;SDS011;11910;52.086;21.066;2023-02-22T14:26:25;7.40;;;4.95;;
23474;SDS011;11910;52.086;21.066;2023-02-22T14:34:11;7.85;;;5.10;;
23474;SDS011;11910;52.086;21.066;2023-02-22T14:42:04;6.50;;;4.35;;
23474;SDS011;11910;52.086;21.066;2023-02-22T14:47:28;6.78;;;4.57;;
23474;SDS011;11910;52.086;21.066;2023-02-22T14:50:16;7.40;;;4.35;;
23474;SDS011;11910;52.086;21.066;2023-02-22T14:53:03;6.53;;;4.70;;
23474;SDS011;11910;52.086;21.066;2023-02-22T14:55:46;7.32;;;4.53;;
23474;SDS011;11910;52.086;21.066;2023-02-22T14:58:23;7.20;;;4.88;;
23474;SDS011;11910;52.086;21.066;2023-02-22T15:00:54;6.28;;;4.20;;
23474;SDS011;11910;52.086;21.066;2023-02-22T15:09:10;7.03;;;4.68;;
23474;SDS011;11910;52.086;21.066;2023-02-22T15:11:50;8.50;;;3.95;;
23474;SDS011;11910;52.086;21.066;2023-02-22T15:14:37;6.00;;;4.32;;
23474;SDS011;11910;52.086;21.066;2023-02-22T15:17:13;5.95;;;4.10;;
23474;SDS011;11910;52.086;21.066;2023-02-22T15:19:43;5.97;;;4.10;;
23474;SDS011;11910;52.086;21.066;2023-02-22T15:22:20;8.32;;;4.72;;
23474;SDS011;11910;52.086;21.066;2023-02-22T15:24:58;6.13;;;4.30;;
23474;SDS011;11910;52.086;21.066;2023-02-22T15:27:25;13.38;;;4.40;;
23474;SDS011;11910;52.086;21.066;2023-02-22T15:30:37;8.55;;;4.75;;
23474;SDS011;11910;52.086;21.066;2023-02-22T15:32:52;7.53;;;4.00;;
23474;SDS011;11910;52.086;21.066;2023-02-22T15:37:56;10.00;;;4.93;;
23474;SDS011;11910;52.086;21.066;2023-02-22T15:40:27;10.63;;;5.15;;
23474;SDS011;11910;52.086;21.066;2023-02-22T15:43:00;9.82;;;5.22;;
23474;SDS011;11910;52.086;21.066;2023-02-22T15:45:32;11.48;;;5.82;;
23474;SDS011;11910;52.086;21.066;2023-02-22T15:47:58;9.32;;;5.55;;
23474;SDS011;11910;52.086;21.066;2023-02-22T15:50:29;9.02;;;5.05;;
23474;SDS011;11910;52.086;21.066;2023-02-22T15:53:07;8.80;;;5.35;;
23474;SDS011;11910;52.086;21.066;2023-02-22T15:55:57;9.88;;;6.10;;
23474;SDS011;11910;52.086;21.066;2023-02-22T15:58:26;9.23;;;5.78;;
23474;SDS011;11910;52.086;21.066;2023-02-22T16:01:01;8.32;;;5.65;;
23474;SDS011;11910;52.086;21.066;2023-02-22T16:06:10;10.13;;;6.13;;
23474;SDS011;11910;52.086;21.066;2023-02-22T16:08:48;9.95;;;6.10;;
23474;SDS011;11910;52.086;21.066;2023-02-22T16:11:25;11.05;;;6.53;;
23474;SDS011;11910;52.086;21.066;2023-02-22T16:14:28;10.15;;;6.63;;
23474;SDS011;11910;52.086;21.066;2023-02-22T16:17:10;8.88;;;5.95;;
23474;SDS011;11910;52.086;21.066;2023-02-22T16:19:48;7.32;;;4.85;;
23474;SDS011;11910;52.086;21.066;2023-02-22T16:22:32;6.95;;;4.53;;
23474;SDS011;11910;52.086;21.066;2023-02-22T16:27:43;7.47;;;4.85;;
23474;SDS011;11910;52.086;21.066;2023-02-22T16:32:42;9.65;;;5.30;;
23474;SDS011;11910;52.086;21.066;2023-02-22T16:35:09;9.57;;;5.20;;
23474;SDS011;11910;52.086;21.066;2023-02-22T16:37:42;9.25;;;5.70;;
23474;SDS011;11910;52.086;21.066;2023-02-22T16:40:10;10.05;;;5.90;;
23474;SDS011;11910;52.086;21.066;2023-02-22T16:42:44;8.45;;;5.65;;
23474;SDS011;11910;52.086;21.066;2023-02-22T16:45:13;8.73;;;5.38;;
23474;SDS011;11910;52.086;21.066;2023-02-22T16:47:40;7.63;;;5.07;;
23474;SDS011;11910;52.086;21.066;2023-02-22T16:50:05;7.28;;;4.65;;
23474;SDS011;11910;52.086;21.066;2023-02-22T16:52:31;8.35;;;4.47;;
23474;SDS011;11910;52.086;21.066;2023-02-22T16:54:57;7.03;;;4.30;;
23474;SDS011;11910;52.086;21.066;2023-02-22T16:57:23;5.78;;;3.65;;
23474;SDS011;11910;52.086;21.066;2023-02-22T16:59:50;7.38;;;3.85;;
23474;SDS011;11910;52.086;21.066;2023-02-22T17:02:16;6.07;;;4.10;;
23474;SDS011;11910;52.086;21.066;2023-02-22T17:04:42;7.07;;;4.20;;
23474;SDS011;11910;52.086;21.066;2023-02-22T17:07:13;6.05;;;4.20;;
23474;SDS011;11910;52.086;21.066;2023-02-22T17:09:48;6.57;;;4.57;;
23474;SDS011;11910;52.086;21.066;2023-02-22T17:12:15;8.63;;;5.20;;
23474;SDS011;11910;52.086;21.066;2023-02-22T17:14:43;9.07;;;5.50;;
23474;SDS011;11910;52.086;21.066;2023-02-22T17:17:10;12.32;;;6.50;;
23474;SDS011;11910;52.086;21.066;2023-02-22T17:19:37;15.60;;;7.25;;
23474;SDS011;11910;52.086;21.066;2023-02-22T17:22:02;16.70;;;8.55;;
23474;SDS011;11910;52.086;21.066;2023-02-22T17:24:30;16.65;;;8.48;;
23474;SDS011;11910;52.086;21.066;2023-02-22T17:26:58;17.05;;;8.18;;
23474;SDS011;11910;52.086;21.066;2023-02-22T17:29:24;13.55;;;7.55;;
23474;SDS011;11910;52.086;21.066;2023-02-22T17:31:51;12.13;;;6.95;;
23474;SDS011;11910;52.086;21.066;2023-02-22T17:34:18;12.90;;;8.48;;
23474;SDS011;11910;52.086;21.066;2023-02-22T17:36:44;14.23;;;9.13;;
23474;SDS011;11910;52.086;21.066;2023-02-22T17:39:10;12.50;;;7.53;;
23474;SDS011;11910;52.086;21.066;2023-02-22T17:41:37;15.43;;;9.18;;
23474;SDS011;11910;52.086;21.066;2023-02-22T17:44:03;13.38;;;8.65;;
23474;SDS011;11910;52.086;21.066;2023-02-22T17:46:29;18.27;;;10.90;;
23474;SDS011;11910;52.086;21.066;2023-02-22T17:48:55;18.98;;;11.30;;
23474;SDS011;11910;52.086;21.066;2023-02-22T17:51:21;19.90;;;10.45;;